createdAt,value
2022-08-17T00:02:22.428Z,10.43
2022-08-17T00:04:54.128Z,10.75
2022-08-17T00:07:21.094Z,11.27
2022-08-17T00:09:48.363Z,10.77
2022-08-17T00:12:42.278Z,10.82
2022-08-17T00:15:02.567Z,9.57
2022-08-17T00:17:29.481Z,9.90
2022-08-17T00:19:56.399Z,9.95
2022-08-17T00:22:34.400Z,8.25
2022-08-17T00:27:34.713Z,9.48
2022-08-17T00:30:01.686Z,9.70
2022-08-17T00:33:11.959Z,8.50
2022-08-17T00:35:17.700Z,9.32
2022-08-17T00:37:44.739Z,10.43
2022-08-17T00:40:13.337Z,9.45
2022-08-17T00:42:40.508Z,10.20
2022-08-17T00:45:08.191Z,9.70
2022-08-17T00:47:35.168Z,9.75
2022-08-17T00:50:02.447Z,9.80
2022-08-17T00:52:32.690Z,10.48
2022-08-17T00:54:59.752Z,9.65
2022-08-17T00:57:31.862Z,9.77
2022-08-17T01:00:03.526Z,8.90
2022-08-17T01:02:43.150Z,10.25
2022-08-17T01:05:19.708Z,9.63
2022-08-17T01:07:48.270Z,10.30
2022-08-17T01:11:00.038Z,9.23
2022-08-17T01:13:05.225Z,9.00
2022-08-17T01:15:33.578Z,9.02
2022-08-17T01:18:00.566Z,9.00
2022-08-17T01:20:27.563Z,8.63
2022-08-17T01:22:54.551Z,9.65
2022-08-17T01:25:21.626Z,9.57
2022-08-17T01:27:48.828Z,9.70
2022-08-17T01:30:58.018Z,9.77
2022-08-17T01:33:02.959Z,9.10
2022-08-17T01:35:29.924Z,9.75
2022-08-17T01:37:56.847Z,10.32
2022-08-17T01:40:46.786Z,9.93
2022-08-17T01:43:27.085Z,9.95
2022-08-17T01:46:03.395Z,10.05
2022-08-17T01:48:35.692Z,9.77
2022-08-17T01:51:02.684Z,10.57
2022-08-17T01:53:35.418Z,10.73
2022-08-17T01:56:13.432Z,11.45
2022-08-17T01:58:40.559Z,12.35
2022-08-17T02:01:09.504Z,11.27
2022-08-17T02:03:36.731Z,11.45
2022-08-17T02:06:05.198Z,10.32
2022-08-17T02:08:39.546Z,10.98
2022-08-17T02:11:22.835Z,11.15
2022-08-17T02:13:57.842Z,10.35
2022-08-17T02:19:10.331Z,11.40
2022-08-17T02:21:37.992Z,11.40
2022-08-17T02:24:06.809Z,10.45
2022-08-17T02:26:33.800Z,11.13
2022-08-17T02:29:00.784Z,10.73
2022-08-17T02:31:27.720Z,10.75
2022-08-17T02:34:00.209Z,10.50
2022-08-17T02:36:33.109Z,12.25
2022-08-17T02:39:01.761Z,12.10
2022-08-17T02:41:28.758Z,10.85
2022-08-17T02:43:55.671Z,11.18
2022-08-17T02:46:22.759Z,10.88
2022-08-17T02:48:49.771Z,11.20
2022-08-17T02:51:16.879Z,10.82
2022-08-17T02:53:44.019Z,9.38
2022-08-17T02:56:11.046Z,10.32
2022-08-17T02:58:37.978Z,10.45
2022-08-17T03:01:06.030Z,10.43
2022-08-17T03:03:33.060Z,9.52
2022-08-17T03:06:00.096Z,10.50
2022-08-17T03:08:27.345Z,10.43
2022-08-17T03:10:54.332Z,11.32
2022-08-17T03:13:21.710Z,10.60
2022-08-17T03:15:48.831Z,11.70
2022-08-17T03:18:24.257Z,10.38
2022-08-17T03:20:57.483Z,10.55
2022-08-17T03:23:25.366Z,10.40
2022-08-17T03:25:53.024Z,10.68
2022-08-17T03:28:21.056Z,10.35
2022-08-17T03:30:48.103Z,9.88
2022-08-17T03:33:15.176Z,10.30
2022-08-17T03:35:42.199Z,10.23
2022-08-17T03:38:10.255Z,9.80
2022-08-17T03:40:57.565Z,10.25
2022-08-17T03:43:24.652Z,10.48
2022-08-17T03:46:35.164Z,10.60
2022-08-17T03:49:25.300Z,9.95
2022-08-17T03:52:14.075Z,9.63
2022-08-17T03:55:00.219Z,10.52
2022-08-17T03:57:27.247Z,10.07
2022-08-17T03:59:55.003Z,10.20
2022-08-17T04:02:27.070Z,10.35
2022-08-17T04:04:54.326Z,9.95
2022-08-17T04:07:23.142Z,9.55
2022-08-17T04:09:50.307Z,8.38
2022-08-17T04:12:18.664Z,9.82
2022-08-17T04:14:53.365Z,8.55
2022-08-17T04:17:28.244Z,9.20
2022-08-17T04:19:55.534Z,8.65
2022-08-17T04:22:32.680Z,8.93
2022-08-17T04:25:08.502Z,9.20
2022-08-17T04:27:35.745Z,9.32
2022-08-17T04:30:02.730Z,9.95
2022-08-17T04:33:00.841Z,9.00
2022-08-17T04:35:21.106Z,9.98
2022-08-17T04:37:48.159Z,9.65
2022-08-17T04:40:33.660Z,8.32
2022-08-17T04:43:08.815Z,7.93
2022-08-17T04:45:54.903Z,7.82
2022-08-17T04:48:29.715Z,9.10
2022-08-17T04:51:07.807Z,8.60
2022-08-17T04:53:34.773Z,9.38
2022-08-17T04:56:01.757Z,9.80
2022-08-17T04:58:28.736Z,8.73
2022-08-17T05:00:55.736Z,9.57
2022-08-17T05:03:22.661Z,9.73
2022-08-17T05:05:49.987Z,8.57
2022-08-17T05:08:18.680Z,8.32
2022-08-17T05:10:45.924Z,10.00
2022-08-17T05:13:18.984Z,8.43
2022-08-17T05:15:47.710Z,10.30
2022-08-17T05:18:15.396Z,12.55
2022-08-17T05:20:42.403Z,10.07
2022-08-17T05:23:12.858Z,9.85
2022-08-17T05:25:42.049Z,9.32
2022-08-17T05:28:14.915Z,9.38
2022-08-17T05:30:43.295Z,8.75
2022-08-17T05:33:20.058Z,10.20
2022-08-17T05:35:48.358Z,9.48
2022-08-17T05:38:16.439Z,10.13
2022-08-17T05:40:43.826Z,8.80
2022-08-17T05:43:20.238Z,9.25
2022-08-17T05:46:03.985Z,8.88
2022-08-17T05:48:39.916Z,8.95
2022-08-17T05:51:39.400Z,8.38
2022-08-17T05:54:09.149Z,9.75
2022-08-17T05:59:24.156Z,11.00
2022-08-17T06:01:56.878Z,11.88
2022-08-17T06:04:35.652Z,9.55
2022-08-17T06:07:21.164Z,10.40
2022-08-17T06:09:57.194Z,9.52
2022-08-17T06:12:54.317Z,9.38
2022-08-17T06:15:43.891Z,8.52
2022-08-17T06:18:12.154Z,10.25
2022-08-17T06:21:01.635Z,9.43
2022-08-17T06:23:47.330Z,10.43
2022-08-17T06:26:37.280Z,10.32
2022-08-17T06:29:38.984Z,10.23
2022-08-17T06:32:06.358Z,10.73
2022-08-17T06:34:34.047Z,13.82
2022-08-17T06:37:22.128Z,15.48
2022-08-17T06:40:07.809Z,16.67
2022-08-17T06:43:05.777Z,17.55
2022-08-17T06:45:32.130Z,16.23
2022-08-17T06:48:24.907Z,19.05
2022-08-17T06:51:23.766Z,22.77
2022-08-17T06:54:11.279Z,26.25
2022-08-17T06:56:59.534Z,25.13
2022-08-17T06:59:54.626Z,25.08
2022-08-17T07:02:52.194Z,25.60
2022-08-17T07:05:23.056Z,25.05
2022-08-17T07:08:02.971Z,26.40
2022-08-17T07:10:37.134Z,25.20
2022-08-17T07:13:33.761Z,26.88
2022-08-17T07:16:17.910Z,27.15
2022-08-17T07:18:44.947Z,26.10
2022-08-17T07:21:34.019Z,26.30
2022-08-17T07:24:11.148Z,26.52
2022-08-17T07:27:10.858Z,26.60
2022-08-17T07:30:11.633Z,25.85
2022-08-17T07:32:45.279Z,26.52
2022-08-17T07:35:12.479Z,25.73
2022-08-17T07:37:54.524Z,23.42
2022-08-17T07:40:34.463Z,24.50
2022-08-17T07:43:25.425Z,21.85
2022-08-17T07:46:29.798Z,21.75
2022-08-17T07:48:59.016Z,23.70
2022-08-17T07:51:48.036Z,23.33
2022-08-17T07:54:22.534Z,26.75
2022-08-17T07:56:53.497Z,26.88
2022-08-17T07:59:23.031Z,26.38
2022-08-17T08:01:58.105Z,29.73
2022-08-17T08:05:02.027Z,28.23
2022-08-17T08:07:34.878Z,29.15
2022-08-17T08:10:25.633Z,29.33
2022-08-17T08:13:05.787Z,28.17
2022-08-17T08:15:39.693Z,27.38
2022-08-17T08:18:53.636Z,26.65
2022-08-17T08:21:21.416Z,27.05
2022-08-17T08:23:57.585Z,25.75
2022-08-17T08:26:46.524Z,26.92
2022-08-17T08:29:38.037Z,24.75
2022-08-17T08:32:42.939Z,26.23
2022-08-17T08:35:29.746Z,25.70
2022-08-17T08:38:17.876Z,26.08
2022-08-17T08:41:10.007Z,25.02
2022-08-17T08:43:55.132Z,26.23
2022-08-17T08:46:40.751Z,26.02
2022-08-17T08:49:58.958Z,24.63
2022-08-17T08:52:59.610Z,24.98
2022-08-17T08:55:47.647Z,24.10
2022-08-17T08:58:50.559Z,24.63
2022-08-17T09:01:28.124Z,22.75
2022-08-17T09:04:24.244Z,25.48
2022-08-17T09:07:07.796Z,22.80
2022-08-17T09:09:59.440Z,24.10
2022-08-17T09:12:34.690Z,22.63
2022-08-17T09:15:13.011Z,22.55
2022-08-17T09:18:14.674Z,22.47
2022-08-17T09:20:50.461Z,23.85
2022-08-17T09:23:35.556Z,22.98
2022-08-17T09:26:25.466Z,21.77
2022-08-17T09:28:55.943Z,20.52
2022-08-17T09:31:32.755Z,19.27
2022-08-17T09:34:00.310Z,20.77
2022-08-17T09:36:33.126Z,19.55
2022-08-17T09:39:24.173Z,21.52
2022-08-17T09:42:14.439Z,19.20
2022-08-17T09:44:52.853Z,19.95
2022-08-17T09:47:30.709Z,20.20
2022-08-17T09:50:09.743Z,18.48
2022-08-17T09:52:36.759Z,18.33
2022-08-17T09:55:04.005Z,18.58
2022-08-17T09:57:52.993Z,17.83
2022-08-17T10:00:20.184Z,18.45
2022-08-17T10:02:59.059Z,16.02
2022-08-17T10:05:48.477Z,15.30
2022-08-17T10:08:27.707Z,16.85
2022-08-17T10:13:39.089Z,15.70
2022-08-17T10:16:37.400Z,15.23
2022-08-17T10:19:22.069Z,15.77
2022-08-17T10:22:14.699Z,15.18
2022-08-17T10:25:23.669Z,13.00
2022-08-17T10:27:59.200Z,16.83
2022-08-17T10:30:28.276Z,18.40
2022-08-17T10:33:03.840Z,18.33
2022-08-17T10:35:45.255Z,15.65
2022-08-17T10:38:25.601Z,16.92
2022-08-17T10:41:04.181Z,15.95
2022-08-17T10:43:42.196Z,16.92
2022-08-17T10:46:39.835Z,18.13
2022-08-17T10:49:18.910Z,17.30
2022-08-17T10:51:53.603Z,17.20
2022-08-17T10:54:38.267Z,15.32
2022-08-17T10:57:23.655Z,15.30
2022-08-17T10:59:51.781Z,15.93
2022-08-17T11:02:33.499Z,14.98
2022-08-17T11:05:25.325Z,14.00
2022-08-17T11:08:23.644Z,14.30
2022-08-17T11:13:52.332Z,13.70
2022-08-17T11:16:50.301Z,15.15
2022-08-17T11:19:36.094Z,13.88
2022-08-17T11:22:10.470Z,15.55
2022-08-17T11:24:48.011Z,14.88
2022-08-17T11:27:27.978Z,13.25
2022-08-17T11:30:01.509Z,13.70
2022-08-17T11:32:54.408Z,14.15
2022-08-17T11:35:22.072Z,12.48
2022-08-17T11:37:51.896Z,12.77
2022-08-17T11:40:37.145Z,11.82
2022-08-17T11:43:33.428Z,11.40
2022-08-17T11:46:06.707Z,12.10
2022-08-17T11:49:08.496Z,12.88
2022-08-17T11:52:01.113Z,13.20
2022-08-17T11:54:33.351Z,12.40
2022-08-17T11:57:02.565Z,11.52
2022-08-17T11:59:46.031Z,13.73
2022-08-17T12:02:32.961Z,11.18
2022-08-17T12:05:12.491Z,11.55
2022-08-17T12:07:45.256Z,12.48
2022-08-17T12:10:13.193Z,12.32
2022-08-17T12:12:43.803Z,13.93
2022-08-17T12:15:19.076Z,14.20
2022-08-17T12:17:53.699Z,12.73
2022-08-17T12:20:24.176Z,12.43
2022-08-17T12:23:09.679Z,13.70
2022-08-17T12:25:52.978Z,12.65
2022-08-17T12:28:26.355Z,12.00
2022-08-17T12:30:53.390Z,11.88
2022-08-17T12:33:27.720Z,11.98
2022-08-17T12:36:07.573Z,12.15
2022-08-17T12:38:36.356Z,13.32
2022-08-17T12:41:24.837Z,13.50
2022-08-17T12:44:14.584Z,12.43
2022-08-17T12:47:04.728Z,10.98
2022-08-17T12:49:39.447Z,11.55
2022-08-17T12:52:27.655Z,12.48
2022-08-17T12:54:59.718Z,11.73
2022-08-17T12:57:34.893Z,12.25
2022-08-17T13:00:17.876Z,10.77
2022-08-17T13:02:52.246Z,10.90
2022-08-17T13:05:23.743Z,10.68
2022-08-17T13:07:51.113Z,10.93
2022-08-17T13:10:27.398Z,11.07
2022-08-17T13:12:58.170Z,11.23
2022-08-17T13:15:32.876Z,11.43
2022-08-17T13:18:09.152Z,9.90
2022-08-17T13:20:36.200Z,9.35
2022-08-17T13:23:12.003Z,9.63
2022-08-17T13:25:39.720Z,9.65
2022-08-17T13:28:06.644Z,9.13
2022-08-17T13:30:33.916Z,9.90
2022-08-17T13:33:20.973Z,10.25
2022-08-17T13:36:07.006Z,9.65
2022-08-17T13:38:47.395Z,9.35
2022-08-17T13:41:34.911Z,9.70
2022-08-17T13:44:01.999Z,9.98
2022-08-17T13:46:31.410Z,10.43
2022-08-17T13:49:05.224Z,9.50
2022-08-17T13:51:36.795Z,8.55
2022-08-17T13:54:05.799Z,7.72
2022-08-17T13:56:45.392Z,9.60
2022-08-17T13:59:17.287Z,7.22
2022-08-17T14:02:05.170Z,6.30
2022-08-17T14:04:32.661Z,6.20
2022-08-17T14:07:08.615Z,6.38
2022-08-17T14:09:54.910Z,6.30
2022-08-17T14:12:25.080Z,6.15
2022-08-17T14:14:52.628Z,5.90
2022-08-17T14:17:19.618Z,5.80
2022-08-17T14:19:46.616Z,5.60
2022-08-17T14:22:40.835Z,5.13
2022-08-17T14:25:10.531Z,4.97
2022-08-17T14:27:52.289Z,5.10
2022-08-17T14:30:25.410Z,5.07
2022-08-17T14:32:52.936Z,4.63
2022-08-17T14:35:22.367Z,5.13
2022-08-17T14:37:50.375Z,4.80
2022-08-17T14:40:20.817Z,4.82
2022-08-17T14:42:48.266Z,4.32
2022-08-17T14:45:31.494Z,4.60
2022-08-17T14:48:04.267Z,5.00
2022-08-17T14:50:31.714Z,4.82
2022-08-17T14:52:59.182Z,4.50
2022-08-17T14:55:28.484Z,5.18
2022-08-17T14:57:55.504Z,4.63
2022-08-17T15:00:22.650Z,4.80
2022-08-17T15:02:54.554Z,4.60
2022-08-17T15:05:23.353Z,5.20
2022-08-17T15:07:50.745Z,5.25
2022-08-17T15:10:18.051Z,5.43
2022-08-17T15:12:45.584Z,5.13
2022-08-17T15:15:14.512Z,5.00
2022-08-17T15:17:46.017Z,5.40
2022-08-17T15:20:18.685Z,5.57
2022-08-17T15:22:46.495Z,6.00
2022-08-17T15:25:13.583Z,5.50
2022-08-17T15:27:40.714Z,6.40
2022-08-17T15:30:08.685Z,6.40
2022-08-17T15:32:38.192Z,6.13
2022-08-17T15:35:05.929Z,6.18
2022-08-17T15:37:33.547Z,5.35
2022-08-17T15:40:01.321Z,6.15
2022-08-17T15:42:29.409Z,5.47
2022-08-17T15:44:56.379Z,5.30
2022-08-17T15:47:23.542Z,5.85
2022-08-17T15:49:51.020Z,5.60
2022-08-17T15:52:23.087Z,5.55
2022-08-17T15:54:58.405Z,4.72
2022-08-17T15:57:26.077Z,4.90
2022-08-17T15:59:58.964Z,5.38
2022-08-17T16:03:45.261Z,5.57
2022-08-17T16:05:24.789Z,5.60
2022-08-17T16:07:52.593Z,5.60
2022-08-17T16:10:19.896Z,5.15
2022-08-17T16:12:47.859Z,5.30
2022-08-17T16:15:14.987Z,4.80
2022-08-17T16:17:43.230Z,4.53
2022-08-17T16:20:20.097Z,3.63
2022-08-17T16:22:48.378Z,3.90
2022-08-17T16:25:18.798Z,4.88
2022-08-17T16:27:46.570Z,4.53
2022-08-17T16:30:17.356Z,4.30
2022-08-17T16:32:45.314Z,4.10
2022-08-17T16:35:12.637Z,4.38
2022-08-17T16:37:41.809Z,4.50
2022-08-17T16:40:13.152Z,4.72
2022-08-17T16:42:42.955Z,4.40
2022-08-17T16:45:16.908Z,4.30
2022-08-17T16:47:45.298Z,4.60
2022-08-17T16:50:15.292Z,4.47
2022-08-17T16:52:42.540Z,4.10
2022-08-17T16:55:10.213Z,4.07
2022-08-17T16:57:47.612Z,4.50
2022-08-17T17:00:18.078Z,4.00
2022-08-17T17:02:48.177Z,4.78
2022-08-17T17:05:56.207Z,4.60
2022-08-17T17:08:32.236Z,4.95
2022-08-17T17:11:00.626Z,5.47
2022-08-17T17:13:40.619Z,5.18
2022-08-17T17:16:26.418Z,5.60
2022-08-17T17:19:34.938Z,5.82
2022-08-17T17:22:07.589Z,5.50
2022-08-17T17:24:58.682Z,5.80
2022-08-17T17:27:38.314Z,5.95
2022-08-17T17:30:18.231Z,6.47
2022-08-17T17:32:46.386Z,6.60
2022-08-17T17:35:20.555Z,6.15
2022-08-17T17:37:47.941Z,6.07
2022-08-17T17:40:25.266Z,6.68
2022-08-17T17:42:53.139Z,6.18
2022-08-17T17:45:26.088Z,6.53
2022-08-17T17:47:53.572Z,5.68
2022-08-17T17:50:21.891Z,5.57
2022-08-17T17:53:02.211Z,6.47
2022-08-17T17:55:34.562Z,6.43
2022-08-17T17:58:19.723Z,6.30
2022-08-17T18:01:24.520Z,6.18
2022-08-17T18:04:11.208Z,6.78
2022-08-17T18:06:57.153Z,7.43
2022-08-17T18:10:01.758Z,6.53
2022-08-17T18:12:48.089Z,6.72
2022-08-17T18:15:24.428Z,6.82
2022-08-17T18:18:15.178Z,6.43
2022-08-17T18:20:53.421Z,6.55
2022-08-17T18:23:27.089Z,7.05
2022-08-17T18:25:55.613Z,7.28
2022-08-17T18:28:32.451Z,7.40
2022-08-17T18:31:17.529Z,7.97
2022-08-17T18:33:49.266Z,7.50
2022-08-17T18:36:32.906Z,8.75
2022-08-17T18:39:17.219Z,7.05
2022-08-17T18:41:46.161Z,6.90
2022-08-17T18:44:25.911Z,7.78
2022-08-17T18:47:15.592Z,7.03
2022-08-17T18:49:44.043Z,7.18
2022-08-17T18:52:12.967Z,7.57
2022-08-17T18:54:40.064Z,8.30
2022-08-17T18:57:07.661Z,7.97
2022-08-17T18:59:36.040Z,8.82
2022-08-17T19:02:18.183Z,9.60
2022-08-17T19:05:00.623Z,9.05
2022-08-17T19:07:42.056Z,8.90
2022-08-17T19:10:24.517Z,9.40
2022-08-17T19:13:24.033Z,8.85
2022-08-17T19:16:12.338Z,8.82
2022-08-17T19:19:09.962Z,8.32
2022-08-17T19:21:59.090Z,8.82
2022-08-17T19:24:27.526Z,8.40
2022-08-17T19:27:24.085Z,8.05
2022-08-17T19:29:52.474Z,8.23
2022-08-17T19:32:25.168Z,6.93
2022-08-17T19:34:52.393Z,7.70
2022-08-17T19:37:37.439Z,7.13
2022-08-17T19:40:35.055Z,6.95
2022-08-17T19:43:15.504Z,7.28
2022-08-17T19:45:51.443Z,7.35
2022-08-17T19:48:24.033Z,6.78
2022-08-17T19:50:55.437Z,6.88
2022-08-17T19:54:05.031Z,7.00
2022-08-17T19:57:09.411Z,6.82
2022-08-17T19:59:59.021Z,6.55
2022-08-17T20:02:38.149Z,6.32
2022-08-17T20:05:21.285Z,8.45
2022-08-17T20:07:51.271Z,6.80
2022-08-17T20:10:41.095Z,6.93
2022-08-17T20:13:50.373Z,7.80
2022-08-17T20:16:17.634Z,7.55
2022-08-17T20:19:20.052Z,7.75
2022-08-17T20:22:00.588Z,7.40
2022-08-17T20:24:27.580Z,7.05
2022-08-17T20:26:59.885Z,8.43
2022-08-17T20:29:39.715Z,7.97
2022-08-17T20:32:15.287Z,8.10
2022-08-17T20:34:44.590Z,7.50
2022-08-17T20:37:14.696Z,7.85
2022-08-17T20:39:44.068Z,8.25
2022-08-17T20:42:20.213Z,9.00
2022-08-17T20:45:23.450Z,8.05
2022-08-17T20:48:33.318Z,8.48
2022-08-17T20:50:57.131Z,8.57
2022-08-17T20:53:55.010Z,9.35
2022-08-17T20:56:43.580Z,9.40
2022-08-17T20:59:26.084Z,9.25
2022-08-17T21:02:20.153Z,9.80
2022-08-17T21:05:00.361Z,8.85
2022-08-17T21:07:43.215Z,8.77
2022-08-17T21:10:15.245Z,9.30
2022-08-17T21:12:50.543Z,10.07
2022-08-17T21:15:37.896Z,9.23
2022-08-17T21:18:30.088Z,8.77
2022-08-17T21:21:27.320Z,8.73
2022-08-17T21:24:12.878Z,8.70
2022-08-17T21:26:56.761Z,8.88
2022-08-17T21:29:31.270Z,8.60
2022-08-17T21:32:02.758Z,7.88
2022-08-17T21:34:34.960Z,8.13
2022-08-17T21:37:20.221Z,7.65
2022-08-17T21:39:52.649Z,8.43
2022-08-17T21:42:31.698Z,8.10
2022-08-17T21:45:29.183Z,9.98
2022-08-17T21:48:17.564Z,8.18
2022-08-17T21:50:57.954Z,7.38
2022-08-17T21:53:32.716Z,7.47
2022-08-17T21:56:00.065Z,7.90
2022-08-17T21:58:40.211Z,7.75
2022-08-17T22:01:11.491Z,7.75
2022-08-17T22:03:38.813Z,8.13
2022-08-17T22:06:23.186Z,8.35
2022-08-17T22:09:06.237Z,7.70
2022-08-17T22:11:52.594Z,8.25
2022-08-17T22:14:53.243Z,7.75
2022-08-17T22:17:19.559Z,7.43
2022-08-17T22:19:48.988Z,8.18
2022-08-17T22:22:21.920Z,8.43
2022-08-17T22:24:59.912Z,7.97
2022-08-17T22:27:45.885Z,8.73
2022-08-17T22:30:42.941Z,7.25
2022-08-17T22:33:51.438Z,7.93
2022-08-17T22:36:51.042Z,9.82
2022-08-17T22:42:13.826Z,8.30
2022-08-17T22:44:48.734Z,8.20
2022-08-17T22:47:17.183Z,7.50
2022-08-17T22:49:57.995Z,7.60
2022-08-17T22:52:32.533Z,8.65
2022-08-17T22:55:26.233Z,7.85
2022-08-17T22:58:11.744Z,7.55
2022-08-17T23:00:57.043Z,7.43
2022-08-17T23:03:25.751Z,7.90
2022-08-17T23:06:06.698Z,7.50
2022-08-17T23:08:36.079Z,7.13
2022-08-17T23:11:03.035Z,7.78
2022-08-17T23:13:33.505Z,6.78
2022-08-17T23:16:00.550Z,7.40
2022-08-17T23:18:27.601Z,7.07
2022-08-17T23:20:54.569Z,7.05
2022-08-17T23:23:23.987Z,6.97
2022-08-17T23:25:51.025Z,8.05
2022-08-17T23:28:18.067Z,7.28
2022-08-17T23:30:46.597Z,6.40
2022-08-17T23:33:19.645Z,6.40
2022-08-17T23:35:46.647Z,6.50
2022-08-17T23:38:13.676Z,6.68
2022-08-17T23:40:40.967Z,6.30
2022-08-17T23:43:25.504Z,6.05
2022-08-17T23:45:57.586Z,6.28
2022-08-17T23:48:30.359Z,6.00
2022-08-17T23:51:09.215Z,6.10
2022-08-17T23:53:36.787Z,6.20
2022-08-17T23:56:09.802Z,6.15
2022-08-17T23:58:38.676Z,5.85
